sensor_id;sensor_type;location;lat;lon;timestamp;temperature;humidity
24158;DHT22;12316;50.904;4.200;2023-08-20T00:01:56;20.00;99.90
24158;DHT22;12316;50.904;4.200;2023-08-20T00:04:26;20.10;99.90
24158;DHT22;12316;50.904;4.200;2023-08-20T00:06:52;20.10;99.90
24158;DHT22;12316;50.904;4.200;2023-08-20T00:09:18;20.00;99.90
24158;DHT22;12316;50.904;4.200;2023-08-20T00:11:43;20.00;99.90
24158;DHT22;12316;50.904;4.200;2023-08-20T00:14:16;20.00;99.90
24158;DHT22;12316;50.904;4.200;2023-08-20T00:16:43;19.90;99.90
24158;DHT22;12316;50.904;4.200;2023-08-20T00:19:09;19.70;99.90
24158;DHT22;12316;50.904;4.200;2023-08-20T00:21:42;19.70;99.90
24158;DHT22;12316;50.904;4.200;2023-08-20T00:24:10;19.70;99.90
24158;DHT22;12316;50.904;4.200;2023-08-20T00:26:37;19.80;99.90
24158;DHT22;12316;50.904;4.200;2023-08-20T00:29:03;19.80;99.90
24158;DHT22;12316;50.904;4.200;2023-08-20T00:31:28;19.80;99.90
24158;DHT22;12316;50.904;4.200;2023-08-20T00:33:54;19.90;99.90
24158;DHT22;12316;50.904;4.200;2023-08-20T00:36:20;19.90;99.90
24158;DHT22;12316;50.904;4.200;2023-08-20T00:38:46;20.00;99.90
24158;DHT22;12316;50.904;4.200;2023-08-20T00:41:11;20.00;99.90
24158;DHT22;12316;50.904;4.200;2023-08-20T00:43:37;20.00;99.90
24158;DHT22;12316;50.904;4.200;2023-08-20T00:46:02;20.00;99.90
24158;DHT22;12316;50.904;4.200;2023-08-20T00:48:29;20.10;99.90
24158;DHT22;12316;50.904;4.200;2023-08-20T00:50:55;20.10;99.90
24158;DHT22;12316;50.904;4.200;2023-08-20T00:53:20;20.10;99.90
24158;DHT22;12316;50.904;4.200;2023-08-20T00:55:46;20.10;99.90
24158;DHT22;12316;50.904;4.200;2023-08-20T00:58:12;20.10;99.90
24158;DHT22;12316;50.904;4.200;2023-08-20T01:00:37;20.10;99.90
24158;DHT22;12316;50.904;4.200;2023-08-20T01:03:03;20.10;99.90
24158;DHT22;12316;50.904;4.200;2023-08-20T01:05:33;20.20;99.90
24158;DHT22;12316;50.904;4.200;2023-08-20T01:10:56;20.30;99.90
24158;DHT22;12316;50.904;4.200;2023-08-20T01:13:23;20.30;99.90
24158;DHT22;12316;50.904;4.200;2023-08-20T01:15:48;20.20;99.90
24158;DHT22;12316;50.904;4.200;2023-08-20T01:18:14;20.10;99.90
24158;DHT22;12316;50.904;4.200;2023-08-20T01:20:47;20.10;99.90
24158;DHT22;12316;50.904;4.200;2023-08-20T01:26:14;20.00;99.90
24158;DHT22;12316;50.904;4.200;2023-08-20T01:28:43;19.90;99.90
24158;DHT22;12316;50.904;4.200;2023-08-20T01:31:10;19.90;99.90
24158;DHT22;12316;50.904;4.200;2023-08-20T01:33:37;20.00;99.90
24158;DHT22;12316;50.904;4.200;2023-08-20T01:36:03;19.90;99.90
24158;DHT22;12316;50.904;4.200;2023-08-20T01:38:35;19.90;99.90
24158;DHT22;12316;50.904;4.200;2023-08-20T01:41:01;19.90;99.90
24158;DHT22;12316;50.904;4.200;2023-08-20T01:43:27;20.00;99.90
24158;DHT22;12316;50.904;4.200;2023-08-20T01:45:53;20.10;99.90
24158;DHT22;12316;50.904;4.200;2023-08-20T01:48:18;20.30;99.90
24158;DHT22;12316;50.904;4.200;2023-08-20T01:50:44;20.40;99.90
24158;DHT22;12316;50.904;4.200;2023-08-20T01:53:11;20.50;99.90
24158;DHT22;12316;50.904;4.200;2023-08-20T01:55:37;20.40;99.90
24158;DHT22;12316;50.904;4.200;2023-08-20T01:58:03;20.20;99.90
24158;DHT22;12316;50.904;4.200;2023-08-20T02:00:29;20.10;99.90
24158;DHT22;12316;50.904;4.200;2023-08-20T02:02:56;20.00;99.90
24158;DHT22;12316;50.904;4.200;2023-08-20T02:05:21;19.90;99.90
24158;DHT22;12316;50.904;4.200;2023-08-20T02:07:48;19.90;99.90
24158;DHT22;12316;50.904;4.200;2023-08-20T02:10:14;19.90;99.90
24158;DHT22;12316;50.904;4.200;2023-08-20T02:12:40;19.80;99.90
24158;DHT22;12316;50.904;4.200;2023-08-20T02:15:07;19.80;99.90
24158;DHT22;12316;50.904;4.200;2023-08-20T02:17:33;19.90;99.90
24158;DHT22;12316;50.904;4.200;2023-08-20T02:20:01;19.90;99.90
24158;DHT22;12316;50.904;4.200;2023-08-20T02:22:28;19.80;99.90
24158;DHT22;12316;50.904;4.200;2023-08-20T02:24:55;19.70;99.90
24158;DHT22;12316;50.904;4.200;2023-08-20T02:27:20;19.50;99.90
24158;DHT22;12316;50.904;4.200;2023-08-20T02:29:47;19.30;99.90
24158;DHT22;12316;50.904;4.200;2023-08-20T02:32:13;19.20;99.90
24158;DHT22;12316;50.904;4.200;2023-08-20T02:34:38;19.20;99.90
24158;DHT22;12316;50.904;4.200;2023-08-20T02:37:05;19.10;99.90
24158;DHT22;12316;50.904;4.200;2023-08-20T02:39:31;19.00;99.90
24158;DHT22;12316;50.904;4.200;2023-08-20T02:41:57;18.90;99.90
24158;DHT22;12316;50.904;4.200;2023-08-20T02:44:23;18.90;99.90
24158;DHT22;12316;50.904;4.200;2023-08-20T02:46:48;18.90;99.90
24158;DHT22;12316;50.904;4.200;2023-08-20T02:49:14;19.00;99.90
24158;DHT22;12316;50.904;4.200;2023-08-20T02:51:42;19.00;99.90
24158;DHT22;12316;50.904;4.200;2023-08-20T02:54:08;18.90;99.90
24158;DHT22;12316;50.904;4.200;2023-08-20T02:56:34;19.00;99.90
24158;DHT22;12316;50.904;4.200;2023-08-20T02:59:00;18.80;99.90
24158;DHT22;12316;50.904;4.200;2023-08-20T03:01:26;18.60;99.90
24158;DHT22;12316;50.904;4.200;2023-08-20T03:03:52;18.60;99.90
24158;DHT22;12316;50.904;4.200;2023-08-20T03:06:17;18.50;99.90
24158;DHT22;12316;50.904;4.200;2023-08-20T03:08:43;18.50;99.90
24158;DHT22;12316;50.904;4.200;2023-08-20T03:11:09;18.50;99.90
24158;DHT22;12316;50.904;4.200;2023-08-20T03:13:35;18.60;99.90
24158;DHT22;12316;50.904;4.200;2023-08-20T03:16:01;18.40;99.90
24158;DHT22;12316;50.904;4.200;2023-08-20T03:18:27;18.40;99.90
24158;DHT22;12316;50.904;4.200;2023-08-20T03:20:55;18.60;99.90
24158;DHT22;12316;50.904;4.200;2023-08-20T03:23:21;18.70;99.90
24158;DHT22;12316;50.904;4.200;2023-08-20T03:25:47;18.60;99.90
24158;DHT22;12316;50.904;4.200;2023-08-20T03:28:13;18.60;99.90
24158;DHT22;12316;50.904;4.200;2023-08-20T03:30:39;18.50;99.90
24158;DHT22;12316;50.904;4.200;2023-08-20T03:33:05;18.50;99.90
24158;DHT22;12316;50.904;4.200;2023-08-20T03:35:30;18.60;99.90
24158;DHT22;12316;50.904;4.200;2023-08-20T03:37:56;18.50;99.90
24158;DHT22;12316;50.904;4.200;2023-08-20T03:40:21;18.60;99.90
24158;DHT22;12316;50.904;4.200;2023-08-20T03:42:47;18.70;99.90
24158;DHT22;12316;50.904;4.200;2023-08-20T03:45:13;18.80;99.90
24158;DHT22;12316;50.904;4.200;2023-08-20T03:47:38;18.70;99.90
24158;DHT22;12316;50.904;4.200;2023-08-20T03:50:05;18.60;99.90
24158;DHT22;12316;50.904;4.200;2023-08-20T03:52:30;18.50;99.90
24158;DHT22;12316;50.904;4.200;2023-08-20T03:54:56;18.50;99.90
24158;DHT22;12316;50.904;4.200;2023-08-20T03:57:22;18.60;99.90
24158;DHT22;12316;50.904;4.200;2023-08-20T03:59:47;18.70;99.90
24158;DHT22;12316;50.904;4.200;2023-08-20T04:02:14;18.70;99.90
24158;DHT22;12316;50.904;4.200;2023-08-20T04:04:40;18.50;99.90
24158;DHT22;12316;50.904;4.200;2023-08-20T04:07:06;18.50;99.90
24158;DHT22;12316;50.904;4.200;2023-08-20T04:09:33;18.40;99.90
24158;DHT22;12316;50.904;4.200;2023-08-20T04:11:59;18.40;99.90
24158;DHT22;12316;50.904;4.200;2023-08-20T04:14:25;18.50;99.90
24158;DHT22;12316;50.904;4.200;2023-08-20T04:16:52;18.50;99.90
24158;DHT22;12316;50.904;4.200;2023-08-20T04:19:17;18.50;99.90
24158;DHT22;12316;50.904;4.200;2023-08-20T04:21:43;18.40;99.90
24158;DHT22;12316;50.904;4.200;2023-08-20T04:24:08;18.50;99.90
24158;DHT22;12316;50.904;4.200;2023-08-20T04:26:34;18.60;99.90
24158;DHT22;12316;50.904;4.200;2023-08-20T04:29:00;18.70;99.90
24158;DHT22;12316;50.904;4.200;2023-08-20T04:31:26;18.60;99.90
24158;DHT22;12316;50.904;4.200;2023-08-20T04:33:52;18.60;99.90
24158;DHT22;12316;50.904;4.200;2023-08-20T04:36:18;18.60;99.90
24158;DHT22;12316;50.904;4.200;2023-08-20T04:38:43;18.70;99.90
24158;DHT22;12316;50.904;4.200;2023-08-20T04:41:09;18.60;99.90
24158;DHT22;12316;50.904;4.200;2023-08-20T04:43:34;18.50;99.90
24158;DHT22;12316;50.904;4.200;2023-08-20T04:46:00;18.40;99.90
24158;DHT22;12316;50.904;4.200;2023-08-20T04:48:25;18.40;99.90
24158;DHT22;12316;50.904;4.200;2023-08-20T04:50:51;18.50;99.90
24158;DHT22;12316;50.904;4.200;2023-08-20T04:53:17;18.60;99.90
24158;DHT22;12316;50.904;4.200;2023-08-20T04:55:43;18.70;99.90
24158;DHT22;12316;50.904;4.200;2023-08-20T04:58:08;18.70;99.90
24158;DHT22;12316;50.904;4.200;2023-08-20T05:00:34;18.70;99.90
24158;DHT22;12316;50.904;4.200;2023-08-20T05:03:01;18.80;99.90
24158;DHT22;12316;50.904;4.200;2023-08-20T05:05:27;18.90;99.90
24158;DHT22;12316;50.904;4.200;2023-08-20T05:07:53;18.90;99.90
24158;DHT22;12316;50.904;4.200;2023-08-20T05:10:19;18.80;99.90
24158;DHT22;12316;50.904;4.200;2023-08-20T05:12:45;18.70;99.90
24158;DHT22;12316;50.904;4.200;2023-08-20T05:15:11;18.70;99.90
24158;DHT22;12316;50.904;4.200;2023-08-20T05:17:37;18.80;99.90
24158;DHT22;12316;50.904;4.200;2023-08-20T05:20:03;18.80;99.90
24158;DHT22;12316;50.904;4.200;2023-08-20T05:22:29;18.80;99.90
24158;DHT22;12316;50.904;4.200;2023-08-20T05:24:54;19.00;99.90
24158;DHT22;12316;50.904;4.200;2023-08-20T05:27:20;19.10;99.90
24158;DHT22;12316;50.904;4.200;2023-08-20T05:29:45;19.10;99.90
24158;DHT22;12316;50.904;4.200;2023-08-20T05:32:11;19.30;99.90
24158;DHT22;12316;50.904;4.200;2023-08-20T05:34:37;19.30;99.90
24158;DHT22;12316;50.904;4.200;2023-08-20T05:37:03;19.40;99.90
24158;DHT22;12316;50.904;4.200;2023-08-20T05:39:30;19.60;99.90
24158;DHT22;12316;50.904;4.200;2023-08-20T05:41:56;19.70;99.90
24158;DHT22;12316;50.904;4.200;2023-08-20T05:44:22;20.00;99.90
24158;DHT22;12316;50.904;4.200;2023-08-20T05:46:48;20.40;99.90
24158;DHT22;12316;50.904;4.200;2023-08-20T05:49:14;20.70;99.90
24158;DHT22;12316;50.904;4.200;2023-08-20T05:51:42;20.80;99.90
24158;DHT22;12316;50.904;4.200;2023-08-20T05:54:08;20.90;99.90
24158;DHT22;12316;50.904;4.200;2023-08-20T05:56:33;21.00;99.90
24158;DHT22;12316;50.904;4.200;2023-08-20T05:58:59;20.90;99.90
24158;DHT22;12316;50.904;4.200;2023-08-20T06:01:24;20.90;99.90
24158;DHT22;12316;50.904;4.200;2023-08-20T06:03:50;20.80;99.90
24158;DHT22;12316;50.904;4.200;2023-08-20T06:06:16;20.90;99.90
24158;DHT22;12316;50.904;4.200;2023-08-20T06:08:41;21.20;99.90
24158;DHT22;12316;50.904;4.200;2023-08-20T06:11:07;21.50;99.90
24158;DHT22;12316;50.904;4.200;2023-08-20T06:13:33;21.70;99.90
24158;DHT22;12316;50.904;4.200;2023-08-20T06:15:58;21.80;99.90
24158;DHT22;12316;50.904;4.200;2023-08-20T06:18:24;21.80;99.90
24158;DHT22;12316;50.904;4.200;2023-08-20T06:20:50;21.80;99.90
24158;DHT22;12316;50.904;4.200;2023-08-20T06:23:15;22.00;99.90
24158;DHT22;12316;50.904;4.200;2023-08-20T06:25:41;22.10;99.90
24158;DHT22;12316;50.904;4.200;2023-08-20T06:28:08;22.20;99.90
24158;DHT22;12316;50.904;4.200;2023-08-20T06:30:35;22.40;99.90
24158;DHT22;12316;50.904;4.200;2023-08-20T06:33:00;22.40;99.90
24158;DHT22;12316;50.904;4.200;2023-08-20T06:35:26;22.60;99.90
24158;DHT22;12316;50.904;4.200;2023-08-20T06:37:52;22.80;99.90
24158;DHT22;12316;50.904;4.200;2023-08-20T06:40:17;22.90;99.90
24158;DHT22;12316;50.904;4.200;2023-08-20T06:42:43;23.10;99.90
24158;DHT22;12316;50.904;4.200;2023-08-20T06:45:09;23.20;99.90
24158;DHT22;12316;50.904;4.200;2023-08-20T06:47:35;23.30;99.90
24158;DHT22;12316;50.904;4.200;2023-08-20T06:50:01;23.30;99.90
24158;DHT22;12316;50.904;4.200;2023-08-20T06:52:26;23.40;99.90
24158;DHT22;12316;50.904;4.200;2023-08-20T06:54:52;23.30;99.90
24158;DHT22;12316;50.904;4.200;2023-08-20T06:57:17;23.30;99.90
24158;DHT22;12316;50.904;4.200;2023-08-20T06:59:43;23.40;99.90
24158;DHT22;12316;50.904;4.200;2023-08-20T07:02:09;23.50;99.90
24158;DHT22;12316;50.904;4.200;2023-08-20T07:04:35;23.50;99.90
24158;DHT22;12316;50.904;4.200;2023-08-20T07:07:01;23.50;99.90
24158;DHT22;12316;50.904;4.200;2023-08-20T07:09:27;23.40;99.90
24158;DHT22;12316;50.904;4.200;2023-08-20T07:11:52;23.50;99.90
24158;DHT22;12316;50.904;4.200;2023-08-20T07:14:18;23.50;99.90
24158;DHT22;12316;50.904;4.200;2023-08-20T07:16:43;23.70;99.90
24158;DHT22;12316;50.904;4.200;2023-08-20T07:19:09;23.90;99.90
24158;DHT22;12316;50.904;4.200;2023-08-20T07:21:35;24.00;99.90
24158;DHT22;12316;50.904;4.200;2023-08-20T07:24:01;24.00;99.90
24158;DHT22;12316;50.904;4.200;2023-08-20T07:26:26;24.10;99.90
24158;DHT22;12316;50.904;4.200;2023-08-20T07:28:52;24.10;99.90
24158;DHT22;12316;50.904;4.200;2023-08-20T07:31:27;24.10;99.90
24158;DHT22;12316;50.904;4.200;2023-08-20T07:33:54;24.10;99.90
24158;DHT22;12316;50.904;4.200;2023-08-20T07:36:21;24.10;99.90
24158;DHT22;12316;50.904;4.200;2023-08-20T07:38:50;24.10;99.90
24158;DHT22;12316;50.904;4.200;2023-08-20T07:41:16;24.20;99.90
24158;DHT22;12316;50.904;4.200;2023-08-20T07:43:43;24.20;99.90
24158;DHT22;12316;50.904;4.200;2023-08-20T07:46:09;24.30;99.90
24158;DHT22;12316;50.904;4.200;2023-08-20T07:48:35;24.40;99.90
24158;DHT22;12316;50.904;4.200;2023-08-20T07:51:05;24.50;99.90
24158;DHT22;12316;50.904;4.200;2023-08-20T07:53:32;24.50;99.90
24158;DHT22;12316;50.904;4.200;2023-08-20T07:55:58;24.60;99.90
24158;DHT22;12316;50.904;4.200;2023-08-20T07:58:24;24.40;99.90
24158;DHT22;12316;50.904;4.200;2023-08-20T08:00:50;24.30;99.90
24158;DHT22;12316;50.904;4.200;2023-08-20T08:03:15;24.10;99.90
24158;DHT22;12316;50.904;4.200;2023-08-20T08:05:49;24.30;99.90
24158;DHT22;12316;50.904;4.200;2023-08-20T08:08:18;24.20;99.90
24158;DHT22;12316;50.904;4.200;2023-08-20T08:10:44;24.30;99.90
24158;DHT22;12316;50.904;4.200;2023-08-20T08:13:16;24.30;99.90
24158;DHT22;12316;50.904;4.200;2023-08-20T08:15:41;24.30;99.90
24158;DHT22;12316;50.904;4.200;2023-08-20T08:18:07;24.40;99.90
24158;DHT22;12316;50.904;4.200;2023-08-20T08:20:33;24.50;99.90
24158;DHT22;12316;50.904;4.200;2023-08-20T08:23:00;24.60;99.90
24158;DHT22;12316;50.904;4.200;2023-08-20T08:25:26;24.70;99.90
24158;DHT22;12316;50.904;4.200;2023-08-20T08:27:51;24.80;99.90
24158;DHT22;12316;50.904;4.200;2023-08-20T08:30:17;24.90;99.90
24158;DHT22;12316;50.904;4.200;2023-08-20T08:32:43;25.00;99.90
24158;DHT22;12316;50.904;4.200;2023-08-20T08:35:09;25.00;99.90
24158;DHT22;12316;50.904;4.200;2023-08-20T08:37:34;25.20;99.90
24158;DHT22;12316;50.904;4.200;2023-08-20T08:40:01;25.30;99.90
24158;DHT22;12316;50.904;4.200;2023-08-20T08:42:31;25.40;99.90
24158;DHT22;12316;50.904;4.200;2023-08-20T08:44:59;25.30;99.90
24158;DHT22;12316;50.904;4.200;2023-08-20T08:47:26;25.40;99.90
24158;DHT22;12316;50.904;4.200;2023-08-20T08:49:55;25.50;99.90
24158;DHT22;12316;50.904;4.200;2023-08-20T08:52:22;25.60;99.90
24158;DHT22;12316;50.904;4.200;2023-08-20T08:54:48;25.60;99.90
24158;DHT22;12316;50.904;4.200;2023-08-20T08:57:15;25.50;99.90
24158;DHT22;12316;50.904;4.200;2023-08-20T08:59:41;25.40;99.90
24158;DHT22;12316;50.904;4.200;2023-08-20T09:02:08;25.30;99.90
24158;DHT22;12316;50.904;4.200;2023-08-20T09:04:38;25.40;99.90
24158;DHT22;12316;50.904;4.200;2023-08-20T09:07:04;25.40;99.90
24158;DHT22;12316;50.904;4.200;2023-08-20T09:09:30;25.40;99.90
24158;DHT22;12316;50.904;4.200;2023-08-20T09:11:57;25.50;99.90
24158;DHT22;12316;50.904;4.200;2023-08-20T09:14:23;25.60;99.90
24158;DHT22;12316;50.904;4.200;2023-08-20T09:17:01;25.50;99.90
24158;DHT22;12316;50.904;4.200;2023-08-20T09:19:35;25.60;99.90
24158;DHT22;12316;50.904;4.200;2023-08-20T09:22:00;25.70;99.90
24158;DHT22;12316;50.904;4.200;2023-08-20T09:24:32;25.70;99.90
24158;DHT22;12316;50.904;4.200;2023-08-20T09:26:59;25.80;99.90
24158;DHT22;12316;50.904;4.200;2023-08-20T09:29:24;25.80;99.90
24158;DHT22;12316;50.904;4.200;2023-08-20T09:32:00;25.90;99.90
24158;DHT22;12316;50.904;4.200;2023-08-20T09:34:36;26.00;99.90
24158;DHT22;12316;50.904;4.200;2023-08-20T09:37:03;25.80;99.90
24158;DHT22;12316;50.904;4.200;2023-08-20T09:39:28;25.90;99.90
24158;DHT22;12316;50.904;4.200;2023-08-20T09:41:55;25.90;99.90
24158;DHT22;12316;50.904;4.200;2023-08-20T09:44:23;25.90;99.90
24158;DHT22;12316;50.904;4.200;2023-08-20T09:46:50;25.90;99.90
24158;DHT22;12316;50.904;4.200;2023-08-20T09:49:17;25.90;99.90
24158;DHT22;12316;50.904;4.200;2023-08-20T09:51:46;26.10;99.90
24158;DHT22;12316;50.904;4.200;2023-08-20T09:57:04;25.90;99.90
24158;DHT22;12316;50.904;4.200;2023-08-20T09:59:32;25.80;99.90
24158;DHT22;12316;50.904;4.200;2023-08-20T10:02:01;25.60;99.90
24158;DHT22;12316;50.904;4.200;2023-08-20T10:04:27;25.60;99.90
24158;DHT22;12316;50.904;4.200;2023-08-20T10:06:53;25.60;99.90
24158;DHT22;12316;50.904;4.200;2023-08-20T10:09:21;25.60;99.90
24158;DHT22;12316;50.904;4.200;2023-08-20T10:11:47;25.70;99.90
24158;DHT22;12316;50.904;4.200;2023-08-20T10:14:13;25.80;99.90
24158;DHT22;12316;50.904;4.200;2023-08-20T10:16:39;25.90;99.90
24158;DHT22;12316;50.904;4.200;2023-08-20T10:19:08;25.90;99.90
24158;DHT22;12316;50.904;4.200;2023-08-20T10:21:34;26.00;99.90
24158;DHT22;12316;50.904;4.200;2023-08-20T10:24:04;26.00;99.90
24158;DHT22;12316;50.904;4.200;2023-08-20T10:26:33;26.00;99.90
24158;DHT22;12316;50.904;4.200;2023-08-20T10:32:09;26.20;99.90
24158;DHT22;12316;50.904;4.200;2023-08-20T10:34:36;26.10;99.90
24158;DHT22;12316;50.904;4.200;2023-08-20T10:37:09;26.10;99.90
24158;DHT22;12316;50.904;4.200;2023-08-20T10:39:35;26.10;99.90
24158;DHT22;12316;50.904;4.200;2023-08-20T10:47:47;26.20;99.90
24158;DHT22;12316;50.904;4.200;2023-08-20T10:50:18;26.30;99.90
24158;DHT22;12316;50.904;4.200;2023-08-20T10:52:48;26.40;99.90
24158;DHT22;12316;50.904;4.200;2023-08-20T10:55:14;26.60;99.90
24158;DHT22;12316;50.904;4.200;2023-08-20T10:57:41;26.70;99.90
24158;DHT22;12316;50.904;4.200;2023-08-20T11:00:07;26.70;99.90
24158;DHT22;12316;50.904;4.200;2023-08-20T11:02:41;26.90;99.90
24158;DHT22;12316;50.904;4.200;2023-08-20T11:05:20;26.70;99.90
24158;DHT22;12316;50.904;4.200;2023-08-20T11:07:49;26.80;99.90
24158;DHT22;12316;50.904;4.200;2023-08-20T11:10:16;26.80;99.90
24158;DHT22;12316;50.904;4.200;2023-08-20T11:12:52;26.90;99.90
24158;DHT22;12316;50.904;4.200;2023-08-20T11:15:18;26.80;99.90
24158;DHT22;12316;50.904;4.200;2023-08-20T11:17:47;26.80;99.90
24158;DHT22;12316;50.904;4.200;2023-08-20T11:20:16;27.00;99.90
24158;DHT22;12316;50.904;4.200;2023-08-20T11:22:42;27.00;99.90
24158;DHT22;12316;50.904;4.200;2023-08-20T11:25:12;27.00;99.90
24158;DHT22;12316;50.904;4.200;2023-08-20T11:27:44;27.00;99.90
24158;DHT22;12316;50.904;4.200;2023-08-20T11:30:10;27.00;99.90
24158;DHT22;12316;50.904;4.200;2023-08-20T11:32:40;27.10;99.90
24158;DHT22;12316;50.904;4.200;2023-08-20T11:35:08;27.20;99.90
24158;DHT22;12316;50.904;4.200;2023-08-20T11:37:34;27.40;99.90
24158;DHT22;12316;50.904;4.200;2023-08-20T11:39:59;27.40;99.90
24158;DHT22;12316;50.904;4.200;2023-08-20T11:42:25;27.60;99.90
24158;DHT22;12316;50.904;4.200;2023-08-20T11:44:55;27.60;99.90
24158;DHT22;12316;50.904;4.200;2023-08-20T11:47:21;27.70;99.90
24158;DHT22;12316;50.904;4.200;2023-08-20T11:49:47;27.70;99.90
24158;DHT22;12316;50.904;4.200;2023-08-20T11:52:13;27.80;99.90
24158;DHT22;12316;50.904;4.200;2023-08-20T11:54:39;27.80;99.90
24158;DHT22;12316;50.904;4.200;2023-08-20T11:57:07;27.80;99.90
24158;DHT22;12316;50.904;4.200;2023-08-20T11:59:33;27.80;99.90
24158;DHT22;12316;50.904;4.200;2023-08-20T12:02:01;27.80;99.90
24158;DHT22;12316;50.904;4.200;2023-08-20T12:04:29;27.90;99.90
24158;DHT22;12316;50.904;4.200;2023-08-20T12:07:05;27.90;99.90
24158;DHT22;12316;50.904;4.200;2023-08-20T12:09:33;27.90;99.90
24158;DHT22;12316;50.904;4.200;2023-08-20T12:11:59;28.00;99.90
24158;DHT22;12316;50.904;4.200;2023-08-20T12:14:26;28.00;99.90
24158;DHT22;12316;50.904;4.200;2023-08-20T12:16:54;28.10;99.90
24158;DHT22;12316;50.904;4.200;2023-08-20T12:19:19;28.00;99.90
24158;DHT22;12316;50.904;4.200;2023-08-20T12:21:45;27.90;99.90
24158;DHT22;12316;50.904;4.200;2023-08-20T12:24:11;27.80;99.90
24158;DHT22;12316;50.904;4.200;2023-08-20T12:26:37;27.90;99.90
24158;DHT22;12316;50.904;4.200;2023-08-20T12:29:03;28.00;99.90
24158;DHT22;12316;50.904;4.200;2023-08-20T12:31:29;28.10;99.90
24158;DHT22;12316;50.904;4.200;2023-08-20T12:33:55;28.20;99.90
24158;DHT22;12316;50.904;4.200;2023-08-20T12:36:20;28.30;99.90
24158;DHT22;12316;50.904;4.200;2023-08-20T12:38:46;28.40;99.90
24158;DHT22;12316;50.904;4.200;2023-08-20T12:41:11;28.40;99.90
24158;DHT22;12316;50.904;4.200;2023-08-20T12:43:37;28.40;99.90
24158;DHT22;12316;50.904;4.200;2023-08-20T12:46:03;28.50;99.90
24158;DHT22;12316;50.904;4.200;2023-08-20T12:48:29;28.70;99.90
24158;DHT22;12316;50.904;4.200;2023-08-20T12:50:55;28.70;99.90
24158;DHT22;12316;50.904;4.200;2023-08-20T12:53:22;28.70;99.90
24158;DHT22;12316;50.904;4.200;2023-08-20T12:55:47;28.90;99.90
24158;DHT22;12316;50.904;4.200;2023-08-20T12:58:13;29.00;99.90
24158;DHT22;12316;50.904;4.200;2023-08-20T13:00:38;29.10;99.90
24158;DHT22;12316;50.904;4.200;2023-08-20T13:03:04;29.10;99.90
24158;DHT22;12316;50.904;4.200;2023-08-20T13:05:31;29.10;99.90
24158;DHT22;12316;50.904;4.200;2023-08-20T13:07:56;29.20;99.90
24158;DHT22;12316;50.904;4.200;2023-08-20T13:10:23;29.30;99.90
24158;DHT22;12316;50.904;4.200;2023-08-20T13:12:53;29.50;99.90
24158;DHT22;12316;50.904;4.200;2023-08-20T13:15:22;29.80;99.90
24158;DHT22;12316;50.904;4.200;2023-08-20T13:17:49;29.90;99.90
24158;DHT22;12316;50.904;4.200;2023-08-20T13:20:16;30.00;99.80
24158;DHT22;12316;50.904;4.200;2023-08-20T13:22:47;30.10;99.70
24158;DHT22;12316;50.904;4.200;2023-08-20T13:25:13;30.10;98.80
24158;DHT22;12316;50.904;4.200;2023-08-20T13:27:40;30.00;98.60
24158;DHT22;12316;50.904;4.200;2023-08-20T13:30:07;29.90;98.40
24158;DHT22;12316;50.904;4.200;2023-08-20T13:32:34;29.70;98.40
24158;DHT22;12316;50.904;4.200;2023-08-20T13:35:00;29.60;99.40
24158;DHT22;12316;50.904;4.200;2023-08-20T13:37:25;29.60;99.30
24158;DHT22;12316;50.904;4.200;2023-08-20T13:39:51;29.70;99.30
24158;DHT22;12316;50.904;4.200;2023-08-20T13:42:16;29.80;99.10
24158;DHT22;12316;50.904;4.200;2023-08-20T13:44:42;30.00;99.80
24158;DHT22;12316;50.904;4.200;2023-08-20T13:47:08;30.20;99.00
24158;DHT22;12316;50.904;4.200;2023-08-20T13:49:34;30.00;98.20
24158;DHT22;12316;50.904;4.200;2023-08-20T13:52:00;30.10;98.50
24158;DHT22;12316;50.904;4.200;2023-08-20T13:54:25;30.20;99.20
24158;DHT22;12316;50.904;4.200;2023-08-20T13:56:52;30.00;98.90
24158;DHT22;12316;50.904;4.200;2023-08-20T13:59:18;30.10;98.80
24158;DHT22;12316;50.904;4.200;2023-08-20T14:01:43;30.10;99.30
24158;DHT22;12316;50.904;4.200;2023-08-20T14:04:09;30.00;98.90
24158;DHT22;12316;50.904;4.200;2023-08-20T14:06:35;29.90;98.90
24158;DHT22;12316;50.904;4.200;2023-08-20T14:09:00;30.00;98.70
24158;DHT22;12316;50.904;4.200;2023-08-20T14:11:26;29.80;99.00
24158;DHT22;12316;50.904;4.200;2023-08-20T14:13:52;29.70;99.00
24158;DHT22;12316;50.904;4.200;2023-08-20T14:16:17;29.30;98.50
24158;DHT22;12316;50.904;4.200;2023-08-20T14:18:43;29.30;98.90
24158;DHT22;12316;50.904;4.200;2023-08-20T14:21:08;29.40;99.30
24158;DHT22;12316;50.904;4.200;2023-08-20T14:23:34;29.50;99.50
24158;DHT22;12316;50.904;4.200;2023-08-20T14:26:00;29.60;98.60
24158;DHT22;12316;50.904;4.200;2023-08-20T14:28:26;29.50;98.60
24158;DHT22;12316;50.904;4.200;2023-08-20T14:30:52;29.50;99.00
24158;DHT22;12316;50.904;4.200;2023-08-20T14:33:20;29.40;99.00
24158;DHT22;12316;50.904;4.200;2023-08-20T14:35:46;29.40;99.50
24158;DHT22;12316;50.904;4.200;2023-08-20T14:38:12;29.40;99.30
24158;DHT22;12316;50.904;4.200;2023-08-20T14:40:39;29.30;99.10
24158;DHT22;12316;50.904;4.200;2023-08-20T14:43:06;29.30;99.80
24158;DHT22;12316;50.904;4.200;2023-08-20T14:45:32;29.20;99.30
24158;DHT22;12316;50.904;4.200;2023-08-20T14:47:57;29.20;99.80
24158;DHT22;12316;50.904;4.200;2023-08-20T14:50:23;29.30;99.90
24158;DHT22;12316;50.904;4.200;2023-08-20T14:52:49;29.20;99.90
24158;DHT22;12316;50.904;4.200;2023-08-20T14:55:18;29.00;99.90
24158;DHT22;12316;50.904;4.200;2023-08-20T14:57:44;29.10;99.90
24158;DHT22;12316;50.904;4.200;2023-08-20T15:00:10;29.20;99.90
24158;DHT22;12316;50.904;4.200;2023-08-20T15:02:42;29.10;99.70
24158;DHT22;12316;50.904;4.200;2023-08-20T15:05:09;28.90;99.70
24158;DHT22;12316;50.904;4.200;2023-08-20T15:07:35;28.80;99.90
24158;DHT22;12316;50.904;4.200;2023-08-20T15:10:05;28.70;99.90
24158;DHT22;12316;50.904;4.200;2023-08-20T15:12:33;28.50;99.90
24158;DHT22;12316;50.904;4.200;2023-08-20T15:15:00;28.50;99.90
24158;DHT22;12316;50.904;4.200;2023-08-20T15:17:26;28.50;99.90
24158;DHT22;12316;50.904;4.200;2023-08-20T15:19:51;28.60;99.90
24158;DHT22;12316;50.904;4.200;2023-08-20T15:22:17;28.70;99.90
24158;DHT22;12316;50.904;4.200;2023-08-20T15:24:43;28.80;99.90
24158;DHT22;12316;50.904;4.200;2023-08-20T15:27:08;28.80;99.90
24158;DHT22;12316;50.904;4.200;2023-08-20T15:29:35;28.70;99.90
24158;DHT22;12316;50.904;4.200;2023-08-20T15:32:00;28.60;99.90
24158;DHT22;12316;50.904;4.200;2023-08-20T15:34:26;28.60;99.90
24158;DHT22;12316;50.904;4.200;2023-08-20T15:36:52;28.60;99.90
24158;DHT22;12316;50.904;4.200;2023-08-20T15:39:18;28.60;99.90
24158;DHT22;12316;50.904;4.200;2023-08-20T15:41:44;28.60;99.90
24158;DHT22;12316;50.904;4.200;2023-08-20T15:44:11;28.60;99.90